Marechal Candido Rondon, Brazil
Current Conditions -  °F | °C
As of 4:00 PM on Sunday 25 Jan 2015 (Local Time) from SBCA Reporting Station
Broken Clouds Broken Clouds  
Wind Chill: 88°   Ceiling: 4000
Heat Index: 93°   Visibility: 6mi
Dew Point: 70°   Wind: 12mph
Humidity: 55%   Direction: 360°N
Pressure: 29.91"   Gusts: NA
Location:  24.56°S, 54.06°W
Report Text: SBCA 251800Z 36010KT 9999 BKN040 FEW050TCU 31/21 Q1013
Loading
Personal Weather Stations






























Interactive Weather Map New forecast layout! Learn more

10-Day Weather Forecast

Advertisements
Track Severe Weather on mobile